Time;durP1;ratioP1;P1;durP2;ratioP2;P2;SDS_P1;SDS_P2;PMS_P1;PMS_P2;Temp;Humidity;BMP_temperature;BMP_pressure;BME280_temperature;BME280_humidity;BME280_pressure;Samples;Min_cycle;Max_cycle;Signal;HPM_P1;HPM_P2
2021/01/01 00:01:16;;;;;;;11.70;6.88;;;2.20;99.90;;;;;;5020341;28;20042;-77
2021/01/01 00:03:43;;;;;;;10.93;7.03;;;2.20;99.90;;;;;;5025953;28;20470;-77
2021/01/01 00:06:10;;;;;;;10.20;6.45;;;2.20;99.90;;;;;;5028588;28;20133;-76
2021/01/01 00:08:37;;;;;;;10.63;7.35;;;2.20;99.90;;;;;;5031056;28;20137;-76
2021/01/01 00:11:03;;;;;;;11.23;7.03;;;2.20;99.90;;;;;;5028656;28;20491;-76
2021/01/01 00:13:30;;;;;;;12.32;8.20;;;2.20;99.90;;;;;;5013707;28;20049;-76
2021/01/01 00:15:57;;;;;;;11.00;6.75;;;2.20;99.90;;;;;;5030349;28;20147;-76
2021/01/01 00:18:23;;;;;;;9.27;5.82;;;2.20;99.90;;;;;;5028610;28;20125;-76
2021/01/01 00:20:49;;;;;;;9.75;6.65;;;2.20;99.90;;;;;;5029100;28;20077;-75
2021/01/01 00:23:16;;;;;;;10.38;6.82;;;2.20;99.90;;;;;;5029299;28;20617;-76
2021/01/01 00:25:43;;;;;;;10.93;6.43;;;2.20;99.90;;;;;;5025089;28;20104;-76
2021/01/01 00:28:09;;;;;;;10.75;6.88;;;2.10;99.90;;;;;;5027157;28;20065;-76
2021/01/01 00:30:36;;;;;;;14.43;8.25;;;2.10;99.90;;;;;;5018189;28;20060;-75
2021/01/01 00:33:02;;;;;;;11.43;6.63;;;2.20;99.90;;;;;;5025128;28;20151;-75
2021/01/01 00:35:29;;;;;;;12.38;7.68;;;2.20;99.90;;;;;;5024984;28;20060;-75
2021/01/01 00:37:55;;;;;;;11.98;6.97;;;2.30;99.90;;;;;;5027234;28;20073;-75
2021/01/01 00:40:22;;;;;;;10.93;7.13;;;2.30;99.90;;;;;;5024215;28;20124;-76
2021/01/01 00:42:48;;;;;;;13.50;7.85;;;2.30;99.90;;;;;;5029014;28;20151;-75
2021/01/01 00:45:15;;;;;;;13.82;8.38;;;2.30;99.90;;;;;;5010038;28;20073;-76
2021/01/01 00:47:48;;;;;;;13.20;7.80;;;2.40;99.90;;;;;;5003026;28;20634;-76
2021/01/01 00:50:15;;;;;;;11.77;7.38;;;2.40;99.90;;;;;;5031204;28;20057;-76
2021/01/01 00:52:42;;;;;;;13.73;7.28;;;2.30;99.90;;;;;;5023760;28;20057;-76
2021/01/01 00:55:09;;;;;;;12.30;7.25;;;2.30;99.90;;;;;;5027810;28;20053;-76
2021/01/01 00:57:35;;;;;;;15.73;8.93;;;2.20;99.90;;;;;;5021429;28;20119;-76
2021/01/01 01:00:04;;;;;;;12.90;7.05;;;2.20;99.90;;;;;;5027859;28;20053;-76
2021/01/01 01:02:32;;;;;;;11.00;7.43;;;2.30;99.90;;;;;;5016635;28;20140;-77
2021/01/01 01:04:59;;;;;;;14.80;8.43;;;2.30;99.90;;;;;;5028855;28;20049;-76
2021/01/01 01:07:25;;;;;;;14.82;8.88;;;2.30;99.90;;;;;;5007143;28;20546;-76
2021/01/01 01:09:52;;;;;;;11.95;7.05;;;2.40;99.90;;;;;;5025115;28;20049;-76
2021/01/01 01:12:21;;;;;;;16.58;9.10;;;2.30;99.90;;;;;;5026618;28;20050;-76
2021/01/01 01:14:48;;;;;;;14.60;8.48;;;2.30;99.90;;;;;;5014629;28;20053;-76
2021/01/01 01:17:14;;;;;;;13.93;8.35;;;2.30;99.90;;;;;;5023979;28;20573;-75
2021/01/01 01:19:41;;;;;;;15.00;8.25;;;2.30;99.90;;;;;;5028093;28;20115;-77
2021/01/01 01:22:07;;;;;;;15.00;9.32;;;2.20;99.90;;;;;;5010668;28;20143;-76
2021/01/01 01:24:34;;;;;;;20.33;10.82;;;2.20;99.90;;;;;;5025998;28;20147;-75
2021/01/01 01:27:00;;;;;;;14.95;8.27;;;2.20;99.90;;;;;;5028302;28;20618;-76
2021/01/01 01:29:26;;;;;;;14.95;8.75;;;2.10;99.90;;;;;;5009450;28;20130;-77
2021/01/01 01:31:53;;;;;;;16.92;9.80;;;2.10;99.90;;;;;;5012200;28;20210;-77
2021/01/01 01:34:19;;;;;;;16.83;9.32;;;2.10;99.90;;;;;;5009005;28;20041;-76
2021/01/01 01:36:45;;;;;;;18.05;9.25;;;2.10;99.90;;;;;;5018450;28;20049;-76
2021/01/01 01:39:12;;;;;;;18.42;11.18;;;2.00;99.90;;;;;;5018251;28;20069;-77
2021/01/01 01:41:38;;;;;;;16.40;9.30;;;2.00;99.90;;;;;;5003432;28;20046;-77
2021/01/01 01:44:05;;;;;;;14.95;8.80;;;2.00;99.90;;;;;;5029005;28;20041;-76
2021/01/01 01:46:50;;;;;;;18.05;10.05;;;1.90;99.90;;;;;;5029655;28;20462;-76
2021/01/01 01:49:17;;;;;;;16.33;9.57;;;1.90;99.90;;;;;;5029790;28;20208;-76
2021/01/01 01:51:47;;;;;;;16.70;8.50;;;1.80;99.90;;;;;;5022554;28;20134;-77
2021/01/01 01:54:19;;;;;;;18.92;11.23;;;1.80;99.90;;;;;;5029540;28;20076;-77
2021/01/01 01:56:46;;;;;;;20.05;12.43;;;1.80;99.90;;;;;;5022206;28;20202;-76
2021/01/01 01:59:15;;;;;;;19.50;10.00;;;1.80;99.90;;;;;;5029002;28;20120;-76
2021/01/01 02:01:42;;;;;;;19.80;8.75;;;1.80;99.90;;;;;;5020382;28;20104;-77
2021/01/01 02:04:08;;;;;;;13.57;6.97;;;1.70;99.90;;;;;;5022881;28;20045;-77
2021/01/01 02:06:36;;;;;;;12.75;6.43;;;1.70;99.90;;;;;;5030657;28;20089;-76
2021/01/01 02:09:03;;;;;;;14.50;8.02;;;1.70;99.90;;;;;;5031139;28;20049;-76
2021/01/01 02:11:31;;;;;;;11.45;6.32;;;1.70;99.90;;;;;;5024533;28;20054;-77
2021/01/01 02:14:00;;;;;;;14.98;6.70;;;1.70;99.90;;;;;;5029185;28;20119;-76
2021/01/01 02:16:28;;;;;;;11.13;5.85;;;1.70;99.90;;;;;;5030817;28;20073;-77
2021/01/01 02:18:55;;;;;;;12.02;6.35;;;1.70;99.90;;;;;;5017169;28;20110;-77
2021/01/01 02:21:21;;;;;;;11.93;6.57;;;1.70;99.90;;;;;;5023007;28;20046;-77
2021/01/01 02:23:48;;;;;;;14.05;6.70;;;1.70;99.90;;;;;;5022758;28;20041;-77
2021/01/01 02:26:14;;;;;;;12.90;6.78;;;1.80;99.90;;;;;;5019589;28;20053;-77
2021/01/01 02:28:41;;;;;;;14.95;6.00;;;1.70;99.90;;;;;;5023485;28;20053;-77
2021/01/01 02:31:08;;;;;;;14.07;7.22;;;1.60;99.90;;;;;;5026203;28;20115;-76
2021/01/01 02:33:34;;;;;;;10.32;5.70;;;1.70;99.90;;;;;;5025194;28;20049;-76
2021/01/01 02:36:01;;;;;;;9.68;5.45;;;1.60;99.90;;;;;;5028854;28;20095;-75
2021/01/01 02:38:27;;;;;;;9.70;5.05;;;1.60;99.90;;;;;;5025533;28;20526;-76
2021/01/01 02:40:54;;;;;;;10.15;4.20;;;1.60;99.90;;;;;;5027405;28;20151;-76
2021/01/01 02:43:20;;;;;;;12.05;6.35;;;1.50;99.90;;;;;;5019274;28;20065;-75
2021/01/01 02:45:47;;;;;;;8.95;4.95;;;1.50;99.90;;;;;;5026844;28;20487;-77
2021/01/01 02:48:16;;;;;;;11.43;5.60;;;1.60;99.90;;;;;;5028454;28;20128;-76
2021/01/01 02:50:43;;;;;;;8.95;5.57;;;1.50;99.90;;;;;;5029192;28;20266;-76
2021/01/01 02:53:10;;;;;;;11.70;5.80;;;1.50;99.90;;;;;;5023880;28;20104;-76
2021/01/01 02:55:37;;;;;;;10.00;5.95;;;1.60;99.90;;;;;;5029868;28;20073;-76
2021/01/01 02:58:05;;;;;;;8.45;5.03;;;1.50;99.90;;;;;;5023305;28;20073;-76
2021/01/01 03:00:34;;;;;;;10.98;6.18;;;1.50;99.90;;;;;;5018883;28;20129;-76
2021/01/01 03:03:00;;;;;;;10.23;5.15;;;1.60;99.90;;;;;;5028793;28;20073;-77
2021/01/01 03:05:27;;;;;;;12.98;6.20;;;1.50;99.90;;;;;;5021448;28;20110;-76
2021/01/01 03:07:53;;;;;;;13.95;7.55;;;1.50;99.90;;;;;;5022817;28;20149;-76
2021/01/01 03:10:20;;;;;;;13.40;7.95;;;1.60;99.90;;;;;;5022552;28;20050;-76
2021/01/01 03:12:46;;;;;;;12.13;7.03;;;1.60;99.90;;;;;;5009687;28;20072;-76
2021/01/01 03:15:14;;;;;;;14.48;7.40;;;1.70;99.90;;;;;;5009682;28;20046;-76
2021/01/01 03:17:41;;;;;;;12.60;7.03;;;1.70;99.90;;;;;;5009232;28;20570;-76
2021/01/01 03:20:08;;;;;;;12.82;7.68;;;1.60;99.90;;;;;;5025843;28;20053;-76
2021/01/01 03:22:36;;;;;;;12.93;7.82;;;1.50;99.90;;;;;;5006112;28;20089;-76
2021/01/01 03:25:04;;;;;;;16.35;8.77;;;1.60;99.90;;;;;;5016360;28;20103;-76
2021/01/01 03:27:31;;;;;;;15.85;8.60;;;1.50;99.90;;;;;;5009335;28;20159;-76
2021/01/01 03:29:58;;;;;;;16.88;8.98;;;1.60;99.90;;;;;;5016145;28;20488;-77
2021/01/01 03:32:24;;;;;;;14.90;8.52;;;1.60;99.90;;;;;;5009620;28;20081;-76
2021/01/01 03:34:53;;;;;;;17.95;9.07;;;1.50;99.90;;;;;;5009447;28;20600;-76
2021/01/01 03:37:19;;;;;;;19.98;9.88;;;1.60;99.90;;;;;;5022461;28;20177;-76
2021/01/01 03:39:46;;;;;;;22.45;11.20;;;1.60;99.90;;;;;;5014083;28;20144;-76
2021/01/01 03:42:12;;;;;;;22.42;10.70;;;1.60;99.90;;;;;;5018637;28;20072;-76
2021/01/01 03:44:39;;;;;;;16.48;8.45;;;1.60;99.90;;;;;;4992664;28;20203;-76
2021/01/01 03:47:06;;;;;;;24.25;11.32;;;1.60;99.90;;;;;;5009226;28;20510;-76
2021/01/01 03:49:33;;;;;;;22.38;9.40;;;1.50;99.90;;;;;;5028594;28;20049;-76
2021/01/01 03:52:00;;;;;;;20.65;10.98;;;1.60;99.90;;;;;;5028753;28;20081;-76
2021/01/01 03:54:27;;;;;;;25.52;12.32;;;1.50;99.90;;;;;;5029482;28;20084;-76
2021/01/01 03:56:53;;;;;;;18.70;9.23;;;1.50;99.90;;;;;;5013080;28;20077;-76
2021/01/01 03:59:20;;;;;;;26.20;13.88;;;1.50;99.90;;;;;;5010357;28;20080;-76
2021/01/01 04:01:46;;;;;;;21.98;12.10;;;1.50;99.90;;;;;;5025672;28;20467;-76
2021/01/01 04:04:13;;;;;;;19.33;11.13;;;1.60;99.90;;;;;;5011395;28;20049;-76
2021/01/01 04:06:39;;;;;;;21.25;11.13;;;1.50;99.90;;;;;;5012769;28;20073;-76
2021/01/01 04:09:06;;;;;;;24.45;11.75;;;1.60;99.90;;;;;;5012428;28;20132;-76
2021/01/01 04:11:37;;;;;;;24.42;12.35;;;1.60;99.90;;;;;;5016813;28;20549;-76
2021/01/01 04:14:04;;;;;;;20.70;9.95;;;1.60;99.90;;;;;;5024767;28;20132;-76
2021/01/01 04:16:31;;;;;;;22.75;12.23;;;1.60;99.90;;;;;;5015025;28;20661;-76
2021/01/01 04:18:58;;;;;;;24.98;13.15;;;1.60;99.90;;;;;;5023932;28;20115;-76
2021/01/01 04:21:25;;;;;;;21.08;12.07;;;1.50;99.90;;;;;;5019719;28;20524;-76
2021/01/01 04:23:52;;;;;;;20.20;10.88;;;1.50;99.90;;;;;;5016519;28;20081;-76
2021/01/01 04:26:21;;;;;;;28.50;14.35;;;1.50;99.90;;;;;;5012210;28;20066;-76
2021/01/01 04:28:48;;;;;;;22.02;13.10;;;1.50;99.90;;;;;;5020940;28;20090;-76
2021/01/01 04:31:14;;;;;;;23.83;13.00;;;1.50;99.90;;;;;;5011535;28;20045;-76
2021/01/01 04:33:41;;;;;;;24.35;13.90;;;1.50;99.90;;;;;;5027058;28;20135;-76
2021/01/01 04:36:07;;;;;;;18.50;10.90;;;1.60;99.90;;;;;;5029547;28;20099;-76
2021/01/01 04:38:33;;;;;;;25.67;13.52;;;1.50;99.90;;;;;;5006736;28;20494;-76
2021/01/01 04:41:00;;;;;;;17.08;9.95;;;1.50;99.90;;;;;;5028329;28;20465;-76
2021/01/01 04:43:27;;;;;;;25.17;14.60;;;1.50;99.90;;;;;;5022970;28;20049;-76
2021/01/01 04:45:54;;;;;;;26.70;15.30;;;1.50;99.90;;;;;;5027552;28;20090;-76
2021/01/01 04:48:21;;;;;;;29.02;15.15;;;1.60;99.90;;;;;;5025774;28;20059;-76
2021/01/01 04:50:47;;;;;;;29.10;16.40;;;1.60;99.90;;;;;;5008122;28;20491;-76
2021/01/01 04:53:17;;;;;;;31.50;16.33;;;1.60;99.90;;;;;;5026807;28;20050;-76
2021/01/01 04:55:44;;;;;;;23.48;13.43;;;1.60;99.90;;;;;;4994239;28;20511;-76
2021/01/01 04:58:12;;;;;;;31.17;15.75;;;1.60;99.90;;;;;;5012005;28;20136;-76
2021/01/01 05:00:39;;;;;;;32.67;18.42;;;1.60;99.90;;;;;;5010192;28;20124;-76
2021/01/01 05:03:05;;;;;;;29.95;16.55;;;1.70;99.90;;;;;;5021247;28;20100;-76
2021/01/01 05:05:33;;;;;;;24.83;15.05;;;1.70;99.90;;;;;;5012763;28;20050;-76
2021/01/01 05:07:59;;;;;;;28.52;16.10;;;1.70;99.90;;;;;;5024195;28;20053;-76
2021/01/01 05:10:25;;;;;;;38.35;19.50;;;1.70;99.90;;;;;;5025566;28;20486;-76
2021/01/01 05:12:54;;;;;;;33.53;17.15;;;1.80;99.90;;;;;;5012182;28;20423;-76
2021/01/01 05:15:34;;;;;;;31.02;16.98;;;1.80;99.90;;;;;;5013476;28;20503;-76
2021/01/01 05:18:00;;;;;;;32.88;18.42;;;1.80;99.90;;;;;;5031035;28;20073;-76
2021/01/01 05:20:30;;;;;;;28.63;16.90;;;1.80;99.90;;;;;;5020654;28;20613;-76
2021/01/01 05:23:24;;;;;;;28.15;15.90;;;1.80;99.90;;;;;;5020548;28;20046;-76
2021/01/01 05:26:10;;;;;;;25.88;15.57;;;1.90;99.90;;;;;;5015773;28;20045;-76
2021/01/01 05:28:48;;;;;;;26.92;14.68;;;1.80;99.90;;;;;;5018392;28;20133;-76
2021/01/01 05:31:26;;;;;;;27.42;15.80;;;1.90;99.90;;;;;;5027276;28;20092;-76
2021/01/01 05:34:06;;;;;;;25.05;15.60;;;1.90;99.90;;;;;;5013516;28;20137;-76
2021/01/01 05:36:38;;;;;;;20.65;12.52;;;1.90;99.90;;;;;;5014310;28;20135;-76
2021/01/01 05:39:08;;;;;;;17.48;11.40;;;1.90;99.90;;;;;;5011514;28;20073;-76
2021/01/01 05:41:40;;;;;;;14.85;9.73;;;1.90;99.90;;;;;;5023748;28;20189;-76
2021/01/01 05:44:12;;;;;;;19.70;12.50;;;1.80;99.90;;;;;;5030049;28;20091;-76
2021/01/01 05:46:59;;;;;;;19.70;12.05;;;1.80;99.90;;;;;;5016384;28;20077;-76
2021/01/01 05:49:37;;;;;;;16.63;9.80;;;1.80;99.90;;;;;;5011093;28;20400;-76
2021/01/01 05:52:09;;;;;;;14.38;9.50;;;1.80;99.90;;;;;;5016395;28;20562;-76
2021/01/01 05:54:41;;;;;;;16.35;9.75;;;1.80;99.90;;;;;;5024153;28;20089;-76
2021/01/01 05:57:09;;;;;;;15.77;9.75;;;1.80;99.90;;;;;;5025483;28;20076;-76
2021/01/01 05:59:37;;;;;;;11.80;7.15;;;1.70;99.90;;;;;;5012086;28;20091;-76
2021/01/01 06:02:05;;;;;;;12.55;7.97;;;1.70;99.90;;;;;;5019960;28;20056;-76
2021/01/01 06:04:33;;;;;;;9.63;6.32;;;1.70;99.90;;;;;;5023606;28;20534;-76
2021/01/01 06:07:01;;;;;;;11.43;6.95;;;1.80;99.90;;;;;;5029787;28;20071;-75
2021/01/01 06:09:30;;;;;;;13.30;7.78;;;1.80;99.90;;;;;;5008505;28;20139;-76
2021/01/01 06:12:10;;;;;;;10.85;6.65;;;1.70;99.90;;;;;;5014386;28;20046;-76
2021/01/01 06:14:46;;;;;;;14.90;8.45;;;1.70;99.90;;;;;;4999814;28;20052;-76
2021/01/01 06:17:16;;;;;;;14.07;8.32;;;1.70;99.90;;;;;;5011799;28;20137;-76
2021/01/01 06:19:46;;;;;;;16.75;10.55;;;1.80;99.90;;;;;;5021976;28;20145;-76
2021/01/01 06:22:18;;;;;;;12.15;7.70;;;1.70;99.90;;;;;;5010661;28;20148;-76
2021/01/01 06:24:48;;;;;;;13.07;7.60;;;1.80;99.90;;;;;;5011915;28;20443;-76
2021/01/01 06:27:15;;;;;;;14.23;9.32;;;1.80;99.90;;;;;;5028247;28;20049;-76
2021/01/01 06:29:44;;;;;;;14.73;8.98;;;1.90;99.90;;;;;;5026624;28;20128;-76
2021/01/01 06:32:11;;;;;;;12.68;8.20;;;1.80;99.90;;;;;;5014296;28;20117;-75
2021/01/01 06:34:38;;;;;;;13.13;8.07;;;1.80;99.90;;;;;;5013030;28;20054;-76
2021/01/01 06:37:05;;;;;;;14.88;9.27;;;1.80;99.90;;;;;;5025245;28;20084;-76
2021/01/01 06:39:40;;;;;;;13.52;8.35;;;1.90;99.90;;;;;;5020100;28;20073;-75
2021/01/01 06:42:08;;;;;;;14.13;8.85;;;1.90;99.90;;;;;;5024099;28;20042;-75
2021/01/01 06:44:40;;;;;;;13.93;8.20;;;1.90;99.90;;;;;;5005207;28;20069;-75
2021/01/01 06:47:30;;;;;;;13.93;8.07;;;1.90;99.90;;;;;;5014710;28;20045;-75
2021/01/01 06:49:56;;;;;;;14.85;8.07;;;1.90;99.90;;;;;;5020604;28;20085;-75
2021/01/01 06:52:24;;;;;;;13.57;8.43;;;2.00;99.90;;;;;;5010413;28;20152;-75
2021/01/01 06:54:58;;;;;;;13.43;8.63;;;2.00;99.90;;;;;;5016062;28;20161;-75
2021/01/01 06:57:29;;;;;;;13.63;9.05;;;2.10;99.90;;;;;;5009499;28;20054;-75
2021/01/01 06:59:58;;;;;;;16.40;9.77;;;2.00;99.90;;;;;;5024728;28;20080;-75
2021/01/01 07:02:29;;;;;;;15.43;9.93;;;1.90;99.90;;;;;;5021632;28;20154;-75
2021/01/01 07:05:00;;;;;;;16.58;10.32;;;1.90;99.90;;;;;;5026919;28;20129;-75
2021/01/01 07:07:43;;;;;;;15.45;10.35;;;1.90;99.90;;;;;;5012034;28;20089;-75
2021/01/01 07:10:34;;;;;;;16.27;9.93;;;1.90;99.90;;;;;;5013081;28;20132;-75
2021/01/01 07:13:17;;;;;;;19.35;12.35;;;1.90;99.90;;;;;;5023702;28;20053;-75
2021/01/01 07:15:44;;;;;;;16.25;10.30;;;2.00;99.90;;;;;;5022711;28;20404;-75
2021/01/01 07:18:10;;;;;;;20.08;12.30;;;2.10;99.90;;;;;;5019213;28;20517;-75
2021/01/01 07:20:40;;;;;;;19.55;13.15;;;2.10;99.90;;;;;;5024536;28;20069;-75
2021/01/01 07:23:06;;;;;;;21.42;12.98;;;1.90;99.90;;;;;;5010618;28;20042;-75
2021/01/01 07:25:37;;;;;;;25.52;15.13;;;1.90;99.90;;;;;;5014815;28;20112;-75
2021/01/01 07:28:05;;;;;;;20.05;12.70;;;1.90;99.90;;;;;;5016851;28;20077;-75
2021/01/01 07:30:33;;;;;;;23.58;14.70;;;1.90;99.90;;;;;;5022742;28;20054;-75
2021/01/01 07:33:00;;;;;;;26.90;16.20;;;1.90;99.90;;;;;;5012061;28;20132;-75
2021/01/01 07:35:29;;;;;;;24.38;14.85;;;1.90;99.90;;;;;;5015450;28;20045;-76
2021/01/01 07:37:55;;;;;;;25.38;15.02;;;2.00;99.90;;;;;;5013969;28;20139;-75
2021/01/01 07:40:22;;;;;;;23.55;15.38;;;2.00;99.90;;;;;;5018244;28;20423;-76
2021/01/01 07:42:53;;;;;;;28.25;16.55;;;1.90;99.90;;;;;;4992089;28;20077;-75
2021/01/01 07:45:20;;;;;;;31.70;18.95;;;1.90;99.90;;;;;;5010255;28;20116;-75
2021/01/01 07:47:47;;;;;;;29.17;17.20;;;2.00;99.90;;;;;;5008059;28;20132;-75
2021/01/01 07:50:18;;;;;;;28.05;16.40;;;2.00;99.90;;;;;;5009837;28;20100;-75
2021/01/01 07:52:45;;;;;;;27.27;16.00;;;2.00;99.90;;;;;;5019729;28;20447;-75
2021/01/01 07:55:19;;;;;;;23.75;14.82;;;2.10;99.90;;;;;;5015262;28;20103;-75
2021/01/01 07:57:46;;;;;;;26.80;16.20;;;2.10;99.90;;;;;;5008692;28;20078;-75
2021/01/01 08:00:14;;;;;;;24.10;15.43;;;2.20;99.90;;;;;;5019035;28;20129;-75
2021/01/01 08:02:41;;;;;;;23.80;15.05;;;2.20;99.90;;;;;;5020513;28;20049;-76
2021/01/01 08:05:13;;;;;;;25.35;15.93;;;2.20;99.90;;;;;;5017888;28;20049;-75
2021/01/01 08:07:39;;;;;;;27.23;16.55;;;2.20;99.90;;;;;;5018784;28;20050;-76
2021/01/01 08:10:06;;;;;;;27.92;17.70;;;2.10;99.90;;;;;;5015018;28;20069;-75
2021/01/01 08:12:37;;;;;;;31.83;17.70;;;2.10;99.90;;;;;;5025198;28;20088;-76
2021/01/01 08:15:04;;;;;;;24.52;15.32;;;2.20;99.90;;;;;;5019918;28;20065;-75
2021/01/01 08:17:31;;;;;;;23.88;14.65;;;2.20;99.90;;;;;;5023946;28;20522;-75
2021/01/01 08:19:57;;;;;;;20.45;12.43;;;2.30;99.90;;;;;;5023009;28;20161;-75
2021/01/01 08:22:33;;;;;;;22.65;15.50;;;2.30;99.90;;;;;;5028615;28;20046;-75
2021/01/01 08:25:00;;;;;;;23.73;14.15;;;2.30;99.90;;;;;;5022989;28;20070;-76
2021/01/01 08:27:28;;;;;;;24.40;14.23;;;2.20;99.90;;;;;;5025772;28;20054;-75
2021/01/01 08:30:00;;;;;;;25.38;14.52;;;2.20;99.90;;;;;;5013603;28;20346;-76
2021/01/01 08:32:26;;;;;;;22.67;13.35;;;2.20;99.90;;;;;;5027981;28;20080;-75
2021/01/01 08:34:53;;;;;;;20.17;12.07;;;2.30;99.90;;;;;;5009711;28;20099;-76
2021/01/01 08:37:25;;;;;;;17.45;11.77;;;2.40;99.90;;;;;;5014522;28;20383;-76
2021/01/01 08:40:01;;;;;;;24.33;14.23;;;2.40;99.90;;;;;;5015706;28;20135;-76
2021/01/01 08:42:35;;;;;;;23.48;13.57;;;2.50;99.90;;;;;;5019408;28;20046;-75
2021/01/01 08:45:07;;;;;;;20.13;12.77;;;2.60;99.90;;;;;;5016148;28;20045;-76
2021/01/01 08:47:37;;;;;;;20.85;11.85;;;2.60;99.90;;;;;;5019507;28;20132;-76
2021/01/01 08:50:15;;;;;;;19.92;11.82;;;2.50;99.90;;;;;;5011752;28;20086;-76
2021/01/01 08:52:44;;;;;;;22.50;13.68;;;2.40;99.90;;;;;;5012516;28;20129;-76
2021/01/01 08:55:12;;;;;;;23.35;14.82;;;2.50;99.90;;;;;;5014726;28;20482;-76
2021/01/01 08:57:38;;;;;;;22.55;14.10;;;2.50;99.90;;;;;;5029827;28;20104;-75
2021/01/01 09:00:06;;;;;;;22.63;13.50;;;2.50;99.90;;;;;;5024884;28;20042;-76
2021/01/01 09:02:33;;;;;;;18.98;12.10;;;2.60;99.90;;;;;;5027922;28;20061;-76
2021/01/01 09:05:02;;;;;;;19.40;12.13;;;2.70;99.90;;;;;;5022370;28;20053;-75
2021/01/01 09:07:29;;;;;;;22.85;13.25;;;2.70;99.90;;;;;;4996015;28;20049;-76
2021/01/01 09:09:56;;;;;;;16.75;10.88;;;2.70;99.90;;;;;;5027849;28;20240;-75
2021/01/01 09:12:23;;;;;;;20.75;11.95;;;2.70;99.90;;;;;;5030178;28;20076;-75
2021/01/01 09:14:52;;;;;;;17.17;11.30;;;2.60;99.90;;;;;;5024278;28;20072;-75
2021/01/01 09:17:20;;;;;;;24.95;14.48;;;2.60;99.90;;;;;;5015050;28;20050;-75
2021/01/01 09:19:47;;;;;;;21.15;13.35;;;2.70;99.90;;;;;;5020932;28;20135;-75
2021/01/01 09:22:18;;;;;;;29.52;17.63;;;2.80;99.90;;;;;;5025147;28;20042;-75
2021/01/01 09:24:47;;;;;;;27.95;17.10;;;2.80;99.90;;;;;;5025389;28;20042;-75
2021/01/01 09:27:14;;;;;;;27.83;16.40;;;2.70;99.90;;;;;;5012013;28;20046;-75
2021/01/01 09:29:40;;;;;;;27.95;16.73;;;2.60;99.90;;;;;;5014870;28;20348;-76
2021/01/01 09:32:12;;;;;;;26.77;15.85;;;2.60;99.90;;;;;;5013065;28;20124;-75
2021/01/01 09:34:39;;;;;;;21.58;12.75;;;2.70;99.90;;;;;;4997514;28;20053;-75
2021/01/01 09:37:10;;;;;;;29.98;16.95;;;2.80;99.90;;;;;;5025235;28;20092;-75
2021/01/01 09:39:37;;;;;;;23.13;13.80;;;2.90;99.90;;;;;;5022727;28;20119;-75
2021/01/01 09:42:04;;;;;;;17.17;9.75;;;3.00;99.90;;;;;;5030193;28;20099;-75
2021/01/01 09:44:30;;;;;;;17.33;10.85;;;3.00;99.90;;;;;;5020966;28;20124;-75
2021/01/01 09:46:57;;;;;;;17.85;11.40;;;2.90;99.90;;;;;;5010952;28;20167;-75
2021/01/01 09:49:23;;;;;;;18.77;11.13;;;3.00;99.90;;;;;;5023230;28;20041;-75
2021/01/01 09:51:50;;;;;;;24.02;13.10;;;2.90;99.90;;;;;;5005633;28;20052;-75
2021/01/01 09:54:33;;;;;;;;;;;3.00;99.90;;;;;;5003025;28;20077;-75
2021/01/01 09:57:00;;;;;;;29.35;15.95;;;3.00;99.90;;;;;;5028629;28;19990;-75
2021/01/01 09:59:27;;;;;;;23.88;14.02;;;3.00;99.90;;;;;;5027173;28;20147;-75
2021/01/01 10:01:53;;;;;;;19.00;11.88;;;3.10;99.90;;;;;;4999595;28;20138;-75
2021/01/01 10:04:20;;;;;;;15.43;9.80;;;3.20;99.90;;;;;;5020991;28;20467;-75
2021/01/01 10:06:49;;;;;;;18.33;8.77;;;3.30;99.90;;;;;;5017093;28;20076;-75
2021/01/01 10:09:16;;;;;;;13.65;8.82;;;3.20;99.90;;;;;;5016338;28;20123;-75
2021/01/01 10:11:47;;;;;;;18.55;10.85;;;3.30;99.90;;;;;;5011151;28;20077;-75
2021/01/01 10:14:14;;;;;;;16.50;9.27;;;3.40;99.90;;;;;;5012232;28;20053;-75
2021/01/01 10:16:41;;;;;;;14.77;8.98;;;3.50;99.90;;;;;;5014251;28;20053;-75
2021/01/01 10:19:07;;;;;;;15.00;8.75;;;3.40;99.90;;;;;;5024310;28;20192;-75
2021/01/01 10:21:33;;;;;;;15.68;9.65;;;3.40;99.90;;;;;;5020900;28;20540;-75
2021/01/01 10:24:00;;;;;;;19.83;8.57;;;3.50;99.90;;;;;;5026316;28;20052;-75
2021/01/01 10:26:27;;;;;;;13.50;8.35;;;3.50;99.90;;;;;;5025194;28;20128;-75
2021/01/01 10:28:53;;;;;;;11.02;6.97;;;3.50;99.90;;;;;;5030758;28;20211;-75
2021/01/01 10:31:23;;;;;;;13.43;6.90;;;3.60;99.90;;;;;;5014510;28;20439;-75
2021/01/01 10:33:50;;;;;;;14.40;9.30;;;3.60;99.90;;;;;;5016298;28;20038;-75
2021/01/01 10:36:16;;;;;;;13.43;7.50;;;3.60;99.90;;;;;;5018672;28;20048;-75
2021/01/01 10:38:43;;;;;;;12.65;8.07;;;3.50;99.90;;;;;;5034545;28;20049;-75
2021/01/01 10:41:13;;;;;;;16.60;8.55;;;3.40;99.90;;;;;;5020101;28;20122;-75
2021/01/01 10:43:40;;;;;;;11.98;7.28;;;3.40;99.90;;;;;;5009945;28;20041;-75
2021/01/01 10:46:07;;;;;;;13.13;7.57;;;3.30;99.90;;;;;;5013933;28;20071;-75
2021/01/01 10:48:33;;;;;;;12.48;7.80;;;3.40;99.90;;;;;;5027849;28;20212;-74
2021/01/01 10:51:00;;;;;;;14.40;7.82;;;3.50;99.90;;;;;;5025470;28;20051;-74
2021/01/01 10:53:26;;;;;;;12.25;7.90;;;3.50;99.90;;;;;;5018855;28;20522;-74
2021/01/01 10:55:53;;;;;;;13.23;7.68;;;3.40;99.90;;;;;;5029361;28;20587;-74
2021/01/01 10:58:26;;;;;;;12.95;7.55;;;3.30;99.90;;;;;;5008699;28;20424;-74
2021/01/01 11:00:53;;;;;;;10.65;6.55;;;3.20;99.90;;;;;;5012659;28;20046;-74
2021/01/01 11:03:23;;;;;;;13.90;7.60;;;3.30;99.90;;;;;;5010332;28;20046;-74
2021/01/01 11:05:50;;;;;;;12.98;7.90;;;3.30;99.90;;;;;;4997785;28;20435;-74
2021/01/01 11:08:16;;;;;;;11.77;6.95;;;3.30;99.90;;;;;;5019362;28;20122;-74
2021/01/01 11:10:43;;;;;;;13.73;8.25;;;3.20;99.90;;;;;;5013496;28;20045;-74
2021/01/01 11:13:10;;;;;;;13.07;8.02;;;3.20;99.90;;;;;;5010018;28;20053;-73
2021/01/01 12:25:11;;;;;;;12.73;8.40;;;3.50;99.90;;;;;;5029592;28;20069;-73
2021/01/01 12:27:39;;;;;;;17.58;9.68;;;3.50;99.90;;;;;;5028380;28;20107;-73
2021/01/01 12:30:07;;;;;;;14.65;8.45;;;3.50;99.90;;;;;;5028805;28;20078;-74
2021/01/01 12:32:36;;;;;;;14.02;8.40;;;3.60;99.90;;;;;;5028674;28;20049;-74
2021/01/01 12:35:03;;;;;;;16.42;10.00;;;3.70;99.90;;;;;;5028861;28;20371;-73
2021/01/01 12:37:29;;;;;;;17.77;10.27;;;3.70;99.90;;;;;;5028605;28;20045;-73
2021/01/01 12:39:55;;;;;;;15.18;9.80;;;3.60;99.90;;;;;;5028120;28;20129;-73
2021/01/01 12:42:23;;;;;;;15.10;9.23;;;3.60;99.90;;;;;;5028329;28;20486;-73
2021/01/01 12:44:51;;;;;;;16.77;10.02;;;3.70;99.90;;;;;;5028797;28;20478;-73
2021/01/01 12:47:18;;;;;;;12.77;8.00;;;3.70;99.90;;;;;;5028176;28;20121;-73
2021/01/01 12:49:45;;;;;;;16.73;9.07;;;3.80;99.90;;;;;;5028484;28;20050;-73
2021/01/01 12:52:12;;;;;;;15.15;9.63;;;3.60;99.90;;;;;;5027801;28;20558;-73
2021/01/01 12:54:39;;;;;;;16.10;9.60;;;3.70;99.90;;;;;;5011980;28;20133;-73
2021/01/01 12:57:05;;;;;;;21.13;11.63;;;3.80;99.90;;;;;;5011702;28;20041;-73
2021/01/01 12:59:32;;;;;;;19.42;11.02;;;3.70;99.90;;;;;;5032706;28;20050;-73
2021/01/01 13:02:02;;;;;;;19.20;11.35;;;3.70;99.90;;;;;;5031192;28;20052;-73
2021/01/01 13:04:28;;;;;;;17.20;10.38;;;3.70;99.90;;;;;;5031557;28;20460;-73
2021/01/01 13:06:55;;;;;;;16.08;9.27;;;3.70;99.90;;;;;;5031230;28;20505;-73
2021/01/01 13:09:22;;;;;;;17.73;10.90;;;3.80;99.90;;;;;;5016266;28;20517;-73
2021/01/01 13:11:48;;;;;;;17.42;10.65;;;3.80;99.90;;;;;;5032224;28;20045;-73
2021/01/01 13:14:15;;;;;;;17.58;10.10;;;3.90;99.90;;;;;;5031704;28;20095;-73
2021/01/01 13:16:43;;;;;;;21.02;11.80;;;3.90;99.90;;;;;;5031301;28;20081;-73
2021/01/01 13:19:10;;;;;;;20.77;11.43;;;3.90;99.90;;;;;;5033177;28;20050;-73
2021/01/01 13:21:44;;;;;;;19.27;11.18;;;3.90;99.90;;;;;;5036430;28;20041;-73
2021/01/01 13:24:10;;;;;;;16.85;10.05;;;4.00;99.90;;;;;;5038253;28;20123;-73
2021/01/01 13:26:37;;;;;;;19.63;12.27;;;4.10;99.90;;;;;;5031973;28;20153;-73
2021/01/01 13:29:04;;;;;;;18.25;11.27;;;4.30;99.90;;;;;;5030840;28;20045;-73
2021/01/01 13:31:41;;;;;;;21.10;12.13;;;4.30;99.90;;;;;;5032165;28;20060;-73
2021/01/01 13:34:09;;;;;;;21.60;12.10;;;4.30;99.90;;;;;;5029979;28;20041;-73
2021/01/01 13:36:37;;;;;;;18.08;11.43;;;4.20;99.90;;;;;;5031384;28;20052;-73
2021/01/01 13:39:04;;;;;;;20.05;12.68;;;4.40;99.90;;;;;;5031059;28;20498;-73
2021/01/01 13:41:36;;;;;;;21.83;12.52;;;4.20;99.90;;;;;;5024685;28;20119;-73
2021/01/01 13:44:02;;;;;;;16.58;10.43;;;4.10;99.90;;;;;;5031013;28;20473;-73
2021/01/01 13:46:30;;;;;;;19.83;11.13;;;4.10;99.90;;;;;;5030858;28;20079;-73
2021/01/01 13:48:56;;;;;;;17.00;9.93;;;4.10;99.90;;;;;;5031084;28;20187;-73
2021/01/01 13:51:28;;;;;;;15.88;10.13;;;4.10;99.90;;;;;;5013786;28;20055;-73
2021/01/01 13:53:56;;;;;;;17.77;10.60;;;3.90;99.90;;;;;;5030727;28;20049;-73
2021/01/01 13:56:24;;;;;;;15.25;9.82;;;3.90;99.90;;;;;;5030153;28;20054;-74
2021/01/01 13:58:50;;;;;;;16.92;10.50;;;3.90;99.90;;;;;;5029459;28;20064;-74